createdAt,value
2024-01-20T00:00:14.436Z,7.27
2024-01-20T00:02:41.725Z,6.87
2024-01-20T00:05:09.324Z,7.03
2024-01-20T00:07:36.403Z,7.83
2024-01-20T00:10:03.870Z,6.73
2024-01-20T00:12:35.067Z,7.57
2024-01-20T00:15:02.523Z,7.07
2024-01-20T00:17:30.311Z,7.60
2024-01-20T00:19:57.575Z,8.53
2024-01-20T00:22:24.559Z,8.23
2024-01-20T00:24:52.550Z,7.60
2024-01-20T00:27:20.565Z,7.60
2024-01-20T00:29:47.496Z,6.57
2024-01-20T00:32:16.309Z,8.37
2024-01-20T00:34:55.371Z,7.90
2024-01-20T00:37:30.491Z,7.63
2024-01-20T00:39:57.488Z,8.70
2024-01-20T00:42:24.337Z,8.30
2024-01-20T00:44:51.239Z,7.97
2024-01-20T00:47:18.172Z,8.23
2024-01-20T00:49:45.136Z,8.40
2024-01-20T00:52:12.266Z,8.33
2024-01-20T00:59:00.142Z,6.93
2024-01-20T01:01:27.057Z,7.53
2024-01-20T01:03:53.879Z,6.90
2024-01-20T01:06:20.691Z,8.23
2024-01-20T01:08:47.414Z,7.30
2024-01-20T01:11:14.344Z,8.13
2024-01-20T01:13:41.312Z,7.57
2024-01-20T01:16:08.185Z,7.33
2024-01-20T01:18:35.027Z,10.03
2024-01-20T01:21:01.889Z,10.60
2024-01-20T01:23:28.740Z,9.37
2024-01-20T01:25:55.617Z,10.07
2024-01-20T01:28:22.496Z,9.77
2024-01-20T01:30:50.023Z,8.53
2024-01-20T01:33:16.947Z,9.50
2024-01-20T01:35:43.862Z,10.33
2024-01-20T01:38:11.253Z,11.27
2024-01-20T01:40:38.160Z,10.43
2024-01-20T01:43:05.001Z,10.03
2024-01-20T01:45:31.848Z,9.47
2024-01-20T01:47:58.936Z,11.47
2024-01-20T01:50:26.366Z,10.60
2024-01-20T01:52:55.854Z,10.30
2024-01-20T01:55:25.156Z,10.80
2024-01-20T01:57:56.224Z,11.27
2024-01-20T02:00:23.337Z,11.63
2024-01-20T02:02:50.189Z,11.70
2024-01-20T02:05:17.099Z,11.63
2024-01-20T02:07:43.989Z,11.40
2024-01-20T02:10:12.859Z,11.90
2024-01-20T02:12:40.896Z,10.70
2024-01-20T02:15:09.286Z,12.27
2024-01-20T02:17:37.223Z,11.47
2024-01-20T02:20:04.348Z,12.33
2024-01-20T02:22:31.161Z,12.13
2024-01-20T02:24:58.014Z,10.23
2024-01-20T02:27:24.911Z,11.03
2024-01-20T02:29:51.894Z,10.33
2024-01-20T02:32:18.791Z,11.63
2024-01-20T02:34:45.645Z,10.93
2024-01-20T02:37:12.646Z,10.77
2024-01-20T02:39:39.401Z,10.33
2024-01-20T02:42:09.671Z,9.97
2024-01-20T02:44:36.665Z,10.07
2024-01-20T02:47:03.976Z,10.30
2024-01-20T02:49:31.462Z,9.33
2024-01-20T02:51:58.526Z,9.70
2024-01-20T02:54:25.365Z,9.43
2024-01-20T02:56:52.234Z,10.07
2024-01-20T02:59:19.206Z,9.27
2024-01-20T03:01:46.011Z,9.30
2024-01-20T03:04:14.921Z,9.27
2024-01-20T03:06:41.841Z,9.33
2024-01-20T03:09:09.066Z,9.37
2024-01-20T03:11:39.284Z,8.60
2024-01-20T03:14:06.056Z,7.93
2024-01-20T03:16:32.822Z,8.37
2024-01-20T03:19:00.219Z,8.67
2024-01-20T03:21:27.116Z,8.47
2024-01-20T03:23:57.003Z,9.57
2024-01-20T03:26:23.991Z,8.67
2024-01-20T03:28:50.789Z,9.00
2024-01-20T03:31:18.328Z,7.87
2024-01-20T03:33:45.432Z,9.53
2024-01-20T03:36:12.848Z,8.53
2024-01-20T03:38:39.663Z,9.10
2024-01-20T03:41:07.145Z,7.87
2024-01-20T03:43:33.980Z,7.10
2024-01-20T03:46:00.918Z,7.17
2024-01-20T03:48:27.843Z,7.53
2024-01-20T03:50:54.707Z,7.03
2024-01-20T03:53:21.527Z,7.03
2024-01-20T03:55:48.326Z,6.60
2024-01-20T03:58:15.144Z,6.60
2024-01-20T04:00:44.317Z,7.93
2024-01-20T04:03:11.692Z,7.70
2024-01-20T04:05:40.618Z,8.63
2024-01-20T04:08:07.662Z,8.93
2024-01-20T04:10:34.465Z,8.37
2024-01-20T04:13:01.261Z,8.73
2024-01-20T04:15:28.302Z,8.43
2024-01-20T04:17:55.654Z,8.80
2024-01-20T04:20:22.649Z,9.40
2024-01-20T04:22:49.466Z,8.53
2024-01-20T04:25:17.058Z,9.07
2024-01-20T04:27:43.898Z,8.07
2024-01-20T04:30:12.267Z,8.10
2024-01-20T04:32:39.302Z,7.23
2024-01-20T04:35:07.412Z,7.93
2024-01-20T04:37:34.391Z,7.30
2024-01-20T04:40:01.891Z,7.93
2024-01-20T04:42:28.818Z,6.60
2024-01-20T04:44:55.669Z,8.70
2024-01-20T04:47:23.067Z,9.73
2024-01-20T04:49:52.522Z,8.97
2024-01-20T04:52:20.956Z,8.03
2024-01-20T04:54:47.738Z,9.73
2024-01-20T04:57:14.965Z,8.67
2024-01-20T04:59:41.783Z,9.17
2024-01-20T05:02:08.614Z,8.53
2024-01-20T05:04:35.436Z,8.27
2024-01-20T05:07:02.378Z,8.30
2024-01-20T05:09:29.254Z,8.03
2024-01-20T05:11:56.198Z,9.33
2024-01-20T05:14:23.038Z,9.13
2024-01-20T05:16:49.866Z,9.80
2024-01-20T05:19:16.870Z,10.93
2024-01-20T05:21:45.207Z,10.83
2024-01-20T05:24:12.055Z,11.57
2024-01-20T05:26:40.139Z,11.20
2024-01-20T05:29:07.005Z,11.73
2024-01-20T05:31:33.829Z,11.67
2024-01-20T05:34:01.245Z,13.53
2024-01-20T05:36:28.381Z,12.17
2024-01-20T05:38:55.298Z,12.60
2024-01-20T05:41:22.159Z,11.87
2024-01-20T05:43:48.914Z,13.20
2024-01-20T05:46:15.705Z,11.70
2024-01-20T05:48:42.599Z,12.23
2024-01-20T05:51:09.586Z,11.57
2024-01-20T05:53:36.393Z,12.87
2024-01-20T05:56:03.411Z,12.43
2024-01-20T05:58:30.222Z,11.37
2024-01-20T06:00:57.077Z,11.33
2024-01-20T06:03:27.136Z,11.63
2024-01-20T06:05:54.306Z,12.20
2024-01-20T06:08:21.201Z,11.33
2024-01-20T06:10:48.136Z,12.23
2024-01-20T06:13:14.943Z,13.67
2024-01-20T06:15:41.754Z,12.73
2024-01-20T06:18:09.042Z,12.70
2024-01-20T06:20:35.869Z,13.50
2024-01-20T06:23:02.745Z,14.00
2024-01-20T06:25:29.550Z,14.83
2024-01-20T06:27:56.646Z,16.53
2024-01-20T06:30:23.543Z,15.03
2024-01-20T06:32:50.405Z,14.93
2024-01-20T06:35:17.203Z,13.40
2024-01-20T06:37:43.992Z,13.00
2024-01-20T06:40:11.229Z,13.90
2024-01-20T06:42:38.113Z,13.23
2024-01-20T06:45:05.301Z,13.73
2024-01-20T06:47:32.251Z,13.30
2024-01-20T06:49:59.352Z,14.00
2024-01-20T06:52:26.318Z,12.60
2024-01-20T06:54:53.155Z,13.37
2024-01-20T06:57:20.259Z,12.00
2024-01-20T06:59:47.094Z,11.63
2024-01-20T07:02:13.907Z,10.93
2024-01-20T07:04:40.800Z,12.57
2024-01-20T07:07:07.664Z,11.70
2024-01-20T07:09:40.939Z,12.27
2024-01-20T07:12:08.760Z,13.73
2024-01-20T07:14:36.624Z,13.33
2024-01-20T07:17:06.365Z,13.73
2024-01-20T07:19:33.318Z,12.77
2024-01-20T07:22:00.413Z,11.57
2024-01-20T07:24:29.099Z,11.90
2024-01-20T07:26:56.663Z,12.77
2024-01-20T07:29:24.879Z,13.13
2024-01-20T07:31:51.749Z,12.83
2024-01-20T07:34:19.131Z,11.97
2024-01-20T07:36:46.230Z,11.27
2024-01-20T07:39:13.106Z,12.27
2024-01-20T07:41:40.551Z,10.87
2024-01-20T07:44:07.483Z,11.50
2024-01-20T07:46:34.286Z,11.90
2024-01-20T07:49:01.228Z,11.93
2024-01-20T07:51:29.176Z,12.10
2024-01-20T07:53:56.062Z,12.40
2024-01-20T07:56:22.963Z,12.50
2024-01-20T07:58:49.873Z,14.07
2024-01-20T08:01:19.826Z,14.27
2024-01-20T08:03:46.919Z,15.90
2024-01-20T08:06:13.854Z,14.33
2024-01-20T08:08:40.786Z,14.73
2024-01-20T08:11:07.702Z,15.33
2024-01-20T08:13:34.553Z,14.50
2024-01-20T08:16:01.425Z,15.23
2024-01-20T08:18:28.489Z,15.73
2024-01-20T08:20:55.670Z,16.20
2024-01-20T08:23:22.675Z,15.70
2024-01-20T08:25:49.516Z,17.13
2024-01-20T08:28:16.781Z,15.23
2024-01-20T08:30:43.786Z,15.13
2024-01-20T08:33:10.812Z,14.03
2024-01-20T08:35:37.697Z,13.63
2024-01-20T08:38:04.799Z,17.37
2024-01-20T08:40:31.670Z,15.67
2024-01-20T08:42:58.586Z,14.10
2024-01-20T08:45:25.513Z,14.20
2024-01-20T08:47:52.390Z,15.43
2024-01-20T08:50:19.545Z,13.87
2024-01-20T08:52:46.927Z,13.60
2024-01-20T08:55:14.223Z,15.40
2024-01-20T08:57:41.143Z,14.53
2024-01-20T09:00:10.334Z,16.10
2024-01-20T09:02:37.283Z,14.37
2024-01-20T09:05:04.565Z,14.73
2024-01-20T09:07:31.483Z,15.40
2024-01-20T09:09:59.690Z,14.97
2024-01-20T09:12:26.688Z,14.03
2024-01-20T09:14:54.143Z,13.43
2024-01-20T09:17:21.143Z,13.80
2024-01-20T09:19:48.149Z,13.20
2024-01-20T09:22:15.068Z,10.93
2024-01-20T09:24:44.752Z,12.57
2024-01-20T09:27:11.828Z,13.23
2024-01-20T09:29:39.979Z,12.43
2024-01-20T09:32:08.217Z,12.50
2024-01-20T09:34:35.241Z,13.00
2024-01-20T09:37:02.109Z,12.37
2024-01-20T09:39:29.126Z,14.47
2024-01-20T09:41:57.047Z,12.23
2024-01-20T09:44:23.996Z,11.90
2024-01-20T09:46:51.075Z,11.60
2024-01-20T09:49:18.069Z,12.47
2024-01-20T09:51:53.048Z,11.73
2024-01-20T09:54:21.869Z,11.33
2024-01-20T09:56:49.067Z,10.80
2024-01-20T09:59:16.402Z,9.87
2024-01-20T10:01:46.572Z,11.90
2024-01-20T10:04:18.657Z,10.60
2024-01-20T10:06:45.915Z,10.37
2024-01-20T10:09:12.841Z,10.23
2024-01-20T10:11:39.724Z,9.90
2024-01-20T10:14:06.955Z,9.90
2024-01-20T10:16:42.784Z,9.83
2024-01-20T10:19:10.017Z,9.10
2024-01-20T10:21:41.706Z,9.23
2024-01-20T10:24:09.262Z,9.93
2024-01-20T10:26:43.220Z,9.27
2024-01-20T10:29:10.825Z,9.37
2024-01-20T10:31:37.692Z,9.93
2024-01-20T10:34:04.660Z,9.00
2024-01-20T10:36:32.137Z,10.30
2024-01-20T10:39:05.870Z,8.93
2024-01-20T10:41:39.383Z,8.30
2024-01-20T10:44:07.426Z,9.47
2024-01-20T10:46:39.637Z,8.93
2024-01-20T10:49:11.638Z,8.93
2024-01-20T10:51:38.643Z,8.57
2024-01-20T10:54:10.107Z,8.47
2024-01-20T10:56:37.846Z,8.77
2024-01-20T10:59:12.048Z,8.53
2024-01-20T11:01:42.408Z,7.90
2024-01-20T11:04:09.884Z,8.37
2024-01-20T11:06:37.488Z,8.13
2024-01-20T11:09:05.285Z,7.50
2024-01-20T11:11:36.348Z,8.50
2024-01-20T11:14:03.680Z,8.00
2024-01-20T11:16:34.399Z,8.27
2024-01-20T11:19:13.147Z,8.37
2024-01-20T11:21:40.641Z,8.70
2024-01-20T11:24:08.192Z,8.53
2024-01-20T11:26:36.759Z,8.60
2024-01-20T11:29:06.061Z,7.20
2024-01-20T11:31:33.782Z,7.40
2024-01-20T11:34:03.407Z,7.10
2024-01-20T11:36:31.278Z,6.67
2024-01-20T11:38:59.590Z,6.97
2024-01-20T11:41:27.760Z,6.60
2024-01-20T11:43:54.821Z,6.90
2024-01-20T11:46:21.793Z,6.07
2024-01-20T11:48:49.054Z,5.67
2024-01-20T11:51:16.885Z,5.70
2024-01-20T11:53:44.982Z,6.20
2024-01-20T11:56:12.070Z,5.63
2024-01-20T11:58:38.993Z,5.23
2024-01-20T12:01:06.371Z,5.87
2024-01-20T12:03:33.649Z,4.77
2024-01-20T12:06:06.480Z,5.20
2024-01-20T12:08:34.609Z,5.40
2024-01-20T12:11:01.564Z,5.57
2024-01-20T12:13:33.831Z,5.10
2024-01-20T12:16:01.151Z,4.80
2024-01-20T12:18:28.378Z,4.90
2024-01-20T12:20:55.367Z,5.40
2024-01-20T12:23:22.240Z,5.30
2024-01-20T12:25:55.377Z,5.23
2024-01-20T12:28:22.502Z,6.00
2024-01-20T12:30:50.100Z,5.50
2024-01-20T12:33:17.260Z,5.70
2024-01-20T12:35:44.286Z,5.50
2024-01-20T12:38:11.136Z,6.00
2024-01-20T12:40:38.032Z,5.77
2024-01-20T12:43:04.988Z,6.47
2024-01-20T12:45:31.836Z,6.20
2024-01-20T12:47:58.957Z,5.90
2024-01-20T12:50:26.127Z,6.33
2024-01-20T12:52:53.043Z,6.10
2024-01-20T12:55:20.036Z,6.07
2024-01-20T12:57:46.976Z,6.77
2024-01-20T13:00:14.388Z,7.10
2024-01-20T13:02:41.245Z,6.83
2024-01-20T13:05:08.393Z,7.40
2024-01-20T13:07:35.268Z,7.93
2024-01-20T13:10:02.215Z,7.53
2024-01-20T13:12:29.773Z,8.83
2024-01-20T13:14:56.688Z,8.03
2024-01-20T13:17:23.579Z,7.30
2024-01-20T13:19:50.434Z,7.30
2024-01-20T13:22:17.618Z,8.13
2024-01-20T13:24:44.566Z,7.90
2024-01-20T13:27:11.426Z,6.73
2024-01-20T13:29:38.245Z,6.60
2024-01-20T13:32:05.311Z,7.47
2024-01-20T13:34:34.709Z,7.30
2024-01-20T13:37:01.735Z,7.33
2024-01-20T13:39:28.538Z,7.90
2024-01-20T13:41:55.401Z,6.93
2024-01-20T13:44:22.321Z,6.83
2024-01-20T13:46:49.405Z,12.73
2024-01-20T13:49:16.510Z,7.70
2024-01-20T13:51:43.705Z,8.80
2024-01-20T13:54:10.724Z,7.60
2024-01-20T13:56:37.578Z,8.40
2024-01-20T13:59:04.385Z,7.30
2024-01-20T14:01:31.266Z,7.00
2024-01-20T14:03:58.761Z,7.13
2024-01-20T14:06:25.948Z,7.50
2024-01-20T14:08:53.393Z,8.07
2024-01-20T14:11:20.377Z,7.60
2024-01-20T14:13:47.247Z,8.53
2024-01-20T14:16:14.142Z,7.87
2024-01-20T14:18:41.112Z,7.23
2024-01-20T14:21:08.035Z,11.47
2024-01-20T14:23:34.900Z,11.47
2024-01-20T14:26:01.769Z,9.53
2024-01-20T14:28:28.856Z,7.70
2024-01-20T14:30:55.734Z,7.43
2024-01-20T14:33:22.827Z,8.43
2024-01-20T14:35:49.823Z,8.87
2024-01-20T14:38:16.699Z,7.17
2024-01-20T14:40:43.537Z,7.20
2024-01-20T14:43:10.349Z,6.50
2024-01-20T14:45:37.453Z,6.53
2024-01-20T14:48:05.625Z,5.97
2024-01-20T14:50:32.594Z,5.57
2024-01-20T14:52:59.462Z,5.80
2024-01-20T14:55:28.699Z,6.00
2024-01-20T14:57:57.077Z,6.30
2024-01-20T15:00:24.241Z,4.57
2024-01-20T15:02:51.666Z,5.33
2024-01-20T15:05:18.832Z,5.70
2024-01-20T15:07:45.727Z,6.50
2024-01-20T15:10:13.034Z,5.33
2024-01-20T15:12:40.103Z,4.90
2024-01-20T15:15:07.366Z,4.70
2024-01-20T15:17:34.403Z,4.53
2024-01-20T15:20:01.327Z,4.53
2024-01-20T15:22:28.173Z,4.67
2024-01-20T15:24:55.071Z,4.50
2024-01-20T15:27:22.117Z,4.50
2024-01-20T15:29:49.383Z,4.60
2024-01-20T15:32:16.337Z,4.73
2024-01-20T15:34:43.268Z,5.07
2024-01-20T15:37:10.242Z,5.20
2024-01-20T15:39:37.096Z,5.27
2024-01-20T15:42:04.294Z,5.33
2024-01-20T15:44:31.127Z,6.60
2024-01-20T15:46:57.913Z,5.37
2024-01-20T15:49:24.856Z,5.20
2024-01-20T15:51:51.810Z,5.20
2024-01-20T15:54:18.929Z,5.37
2024-01-20T15:56:46.005Z,5.90
2024-01-20T15:59:12.927Z,4.67
2024-01-20T16:01:39.947Z,5.33
2024-01-20T16:04:07.049Z,5.17
2024-01-20T16:06:34.318Z,5.93
2024-01-20T16:09:01.225Z,5.30
2024-01-20T16:11:28.994Z,8.33
2024-01-20T16:13:55.901Z,6.97
2024-01-20T16:16:23.338Z,7.43
2024-01-20T16:18:50.331Z,6.00
2024-01-20T16:21:25.377Z,7.30
2024-01-20T16:23:53.311Z,6.47
2024-01-20T16:26:22.089Z,7.20
2024-01-20T16:28:50.105Z,6.77
2024-01-20T16:31:17.647Z,6.60
2024-01-20T16:33:45.846Z,6.30
2024-01-20T16:36:15.451Z,5.97
2024-01-20T16:38:42.557Z,5.37
2024-01-20T16:41:11.434Z,5.43
2024-01-20T16:43:39.338Z,6.83
2024-01-20T16:46:06.982Z,6.60
2024-01-20T16:48:34.226Z,6.03
2024-01-20T16:51:01.280Z,5.47
2024-01-20T16:53:28.344Z,6.40
2024-01-20T16:55:55.275Z,6.37
2024-01-20T16:58:22.213Z,7.40
2024-01-20T17:00:49.294Z,7.50
2024-01-20T17:03:16.203Z,7.93
2024-01-20T17:05:43.175Z,7.60
2024-01-20T17:08:10.065Z,7.07
2024-01-20T17:10:36.930Z,6.17
2024-01-20T17:13:03.899Z,6.40
2024-01-20T17:15:30.913Z,7.27
2024-01-20T17:17:57.788Z,7.30
2024-01-20T17:20:24.847Z,6.70
2024-01-20T17:22:51.730Z,6.13
2024-01-20T17:25:18.598Z,6.53
2024-01-20T17:27:45.500Z,6.80
2024-01-20T17:30:13.136Z,6.83
2024-01-20T17:32:40.756Z,7.60
2024-01-20T17:35:09.393Z,7.37
2024-01-20T17:37:36.810Z,7.83
2024-01-20T17:40:07.037Z,8.20
2024-01-20T17:42:34.003Z,7.50
2024-01-20T17:45:00.996Z,6.77
2024-01-20T17:47:29.035Z,6.67
2024-01-20T17:49:56.503Z,7.30
2024-01-20T17:52:23.508Z,7.30
2024-01-20T17:54:50.411Z,6.43
2024-01-20T17:57:17.415Z,7.60
2024-01-20T17:59:44.271Z,7.43
2024-01-20T18:02:11.103Z,6.73
2024-01-20T18:04:38.566Z,6.37
2024-01-20T18:07:05.541Z,5.83
2024-01-20T18:09:34.403Z,5.63
2024-01-20T18:12:01.376Z,5.60
2024-01-20T18:14:28.305Z,5.40
2024-01-20T18:16:55.174Z,5.47
2024-01-20T18:19:22.367Z,4.87
2024-01-20T18:21:49.363Z,5.13
2024-01-20T18:24:16.271Z,4.40
2024-01-20T18:26:43.160Z,5.00
2024-01-20T18:29:09.968Z,5.00
2024-01-20T18:31:36.848Z,4.63
2024-01-20T18:34:04.146Z,5.03
2024-01-20T18:36:31.062Z,5.07
2024-01-20T18:38:57.921Z,5.40
2024-01-20T18:41:25.271Z,6.00
2024-01-20T18:43:52.402Z,7.83
2024-01-20T18:46:19.206Z,9.47
2024-01-20T18:48:46.184Z,8.60
2024-01-20T18:51:13.134Z,8.60
2024-01-20T18:53:40.005Z,7.37
2024-01-20T18:56:07.206Z,7.13
2024-01-20T18:58:34.024Z,6.97
2024-01-20T19:01:01.157Z,7.90
2024-01-20T19:03:28.073Z,7.13
2024-01-20T19:05:54.870Z,7.27
2024-01-20T19:08:21.695Z,7.23
2024-01-20T19:10:48.491Z,7.00
2024-01-20T19:13:15.363Z,6.60
2024-01-20T19:15:42.164Z,7.43
2024-01-20T19:18:09.193Z,7.67
2024-01-20T19:20:41.108Z,6.60
2024-01-20T19:23:08.271Z,7.43
2024-01-20T19:25:35.256Z,7.63
2024-01-20T19:28:02.472Z,6.90
2024-01-20T19:30:29.559Z,6.43
2024-01-20T19:32:56.577Z,6.00
2024-01-20T19:35:24.372Z,6.23
2024-01-20T19:37:51.242Z,5.90
2024-01-20T19:40:18.962Z,6.10
2024-01-20T19:42:45.938Z,6.37
2024-01-20T19:45:12.954Z,5.70
2024-01-20T19:47:40.138Z,6.77
2024-01-20T19:50:08.399Z,6.37
2024-01-20T19:52:35.923Z,6.87
2024-01-20T19:55:05.443Z,5.97
2024-01-20T19:57:32.603Z,6.43
2024-01-20T20:00:01.380Z,6.40
2024-01-20T20:02:28.236Z,6.90
2024-01-20T20:04:55.136Z,6.30
2024-01-20T20:07:22.006Z,6.40
2024-01-20T20:09:49.363Z,6.73
2024-01-20T20:12:16.407Z,6.43
2024-01-20T20:14:43.297Z,5.63
2024-01-20T20:17:10.141Z,6.43
2024-01-20T20:19:37.143Z,6.73
2024-01-20T20:22:04.211Z,5.33
2024-01-20T20:24:31.295Z,6.70
2024-01-20T20:26:58.187Z,6.77
2024-01-20T20:29:25.472Z,6.33
2024-01-20T20:31:52.319Z,6.50
2024-01-20T20:34:19.331Z,7.23
2024-01-20T20:36:46.463Z,6.83
2024-01-20T20:39:13.923Z,6.40
2024-01-20T20:41:42.799Z,6.63
2024-01-20T20:44:10.163Z,6.07
2024-01-20T20:46:37.108Z,6.00
2024-01-20T20:49:04.755Z,7.07
2024-01-20T20:51:31.903Z,6.40
2024-01-20T20:53:58.787Z,6.27
2024-01-20T20:56:25.526Z,5.87
2024-01-20T20:58:52.363Z,5.93
2024-01-20T21:01:19.311Z,5.83
2024-01-20T21:03:46.496Z,6.20
2024-01-20T21:06:13.542Z,5.73
2024-01-20T21:08:40.453Z,6.47
2024-01-20T21:11:09.981Z,5.80
2024-01-20T21:13:36.938Z,5.37
2024-01-20T21:16:04.126Z,6.07
2024-01-20T21:18:31.256Z,5.87
2024-01-20T21:20:58.112Z,5.20
2024-01-20T21:23:25.363Z,5.03
2024-01-20T21:25:54.609Z,5.40
2024-01-20T21:28:21.509Z,5.73
2024-01-20T21:30:48.439Z,5.80
2024-01-20T21:33:16.069Z,5.03
2024-01-20T21:35:43.065Z,5.70
2024-01-20T21:38:10.992Z,5.33
2024-01-20T21:40:37.864Z,5.10
2024-01-20T21:43:04.891Z,5.83
2024-01-20T21:45:31.662Z,5.73
2024-01-20T21:47:58.618Z,6.00
2024-01-20T21:50:25.573Z,5.80
2024-01-20T21:52:52.533Z,7.23
2024-01-20T21:55:19.415Z,7.13
2024-01-20T21:57:50.224Z,6.77
2024-01-20T22:00:18.339Z,7.67
2024-01-20T22:02:45.348Z,20.17
2024-01-20T22:05:12.487Z,20.30
2024-01-20T22:07:39.286Z,19.30
2024-01-20T22:10:06.500Z,18.63
2024-01-20T22:12:33.425Z,18.37
2024-01-20T22:15:00.722Z,12.40
2024-01-20T22:17:27.581Z,10.83
2024-01-20T22:19:55.176Z,7.00
2024-01-20T22:22:22.792Z,7.07
2024-01-20T22:24:49.604Z,6.87
2024-01-20T22:27:16.416Z,5.90
2024-01-20T22:29:43.388Z,7.20
2024-01-20T22:32:10.160Z,6.87
2024-01-20T22:34:37.289Z,6.50
2024-01-20T22:37:04.474Z,5.50
2024-01-20T22:39:31.370Z,5.37
2024-01-20T22:41:58.313Z,5.33
2024-01-20T22:44:25.152Z,4.47
2024-01-20T22:46:52.105Z,4.37
2024-01-20T22:49:19.234Z,4.17
2024-01-20T22:51:46.235Z,3.47
2024-01-20T22:54:15.932Z,3.67
2024-01-20T22:56:43.079Z,3.43
2024-01-20T22:59:09.947Z,3.77
2024-01-20T23:01:36.921Z,3.20
2024-01-20T23:04:06.255Z,3.57
2024-01-20T23:06:33.224Z,3.50
2024-01-20T23:09:01.940Z,3.37
2024-01-20T23:11:28.783Z,2.77
2024-01-20T23:13:55.590Z,3.00
2024-01-20T23:16:22.403Z,3.40
2024-01-20T23:18:49.301Z,3.67
2024-01-20T23:21:16.522Z,4.60
2024-01-20T23:23:43.316Z,3.23
2024-01-20T23:26:11.518Z,5.23
2024-01-20T23:28:38.308Z,5.33
2024-01-20T23:31:05.217Z,4.13
2024-01-20T23:33:33.425Z,3.03
2024-01-20T23:36:00.266Z,2.27
2024-01-20T23:38:27.037Z,3.30
2024-01-20T23:40:53.883Z,3.13
2024-01-20T23:43:23.211Z,2.97
2024-01-20T23:45:50.446Z,2.73
2024-01-20T23:48:17.363Z,3.37
2024-01-20T23:50:44.316Z,3.07
2024-01-20T23:53:11.230Z,2.50
2024-01-20T23:55:38.062Z,2.80
2024-01-20T23:58:04.963Z,2.53
